createdAt,value
2022-11-17T00:01:21.425Z,2.03
2022-11-17T00:03:49.181Z,2.17
2022-11-17T00:06:16.417Z,2.33
2022-11-17T00:08:43.115Z,2.87
2022-11-17T00:11:09.573Z,2.80
2022-11-17T00:13:54.346Z,2.67
2022-11-17T00:16:21.569Z,2.93
2022-11-17T00:19:07.689Z,2.67
2022-11-17T00:21:34.400Z,2.00
2022-11-17T00:24:01.148Z,2.40
2022-11-17T00:26:32.742Z,2.27
2022-11-17T00:29:05.351Z,2.40
2022-11-17T00:31:52.099Z,2.70
2022-11-17T00:34:21.208Z,2.27
2022-11-17T00:36:52.654Z,2.43
2022-11-17T00:39:21.475Z,2.03
2022-11-17T00:41:48.318Z,2.10
2022-11-17T00:44:15.529Z,2.33
2022-11-17T00:46:43.023Z,1.90
2022-11-17T00:49:10.954Z,2.07
2022-11-17T00:51:38.381Z,2.23
2022-11-17T00:54:06.436Z,2.00
2022-11-17T00:56:33.761Z,1.90
2022-11-17T00:59:00.649Z,1.70
2022-11-17T01:01:27.601Z,1.90
2022-11-17T01:04:03.203Z,2.00
2022-11-17T01:06:49.404Z,1.57
2022-11-17T01:09:19.481Z,2.07
2022-11-17T01:11:47.048Z,1.90
2022-11-17T01:14:20.076Z,2.20
2022-11-17T01:16:46.923Z,1.63
2022-11-17T01:19:14.808Z,2.10
2022-11-17T01:21:41.580Z,1.73
2022-11-17T01:24:11.397Z,2.00
2022-11-17T01:26:39.389Z,1.70
2022-11-17T01:29:07.158Z,1.40
2022-11-17T01:31:37.543Z,2.00
2022-11-17T01:34:04.521Z,2.00
2022-11-17T01:36:52.473Z,1.40
2022-11-17T01:39:19.127Z,1.77
2022-11-17T01:41:45.693Z,1.40
2022-11-17T01:44:48.236Z,1.23
2022-11-17T01:47:23.383Z,1.60
2022-11-17T01:49:54.313Z,1.20
2022-11-17T01:52:20.932Z,1.50
2022-11-17T01:54:48.893Z,1.50
2022-11-17T01:57:27.103Z,1.40
2022-11-17T02:00:04.738Z,1.60
2022-11-17T02:02:32.947Z,1.40
2022-11-17T02:04:59.315Z,1.27
2022-11-17T02:07:29.716Z,1.20
2022-11-17T02:09:57.151Z,1.50
2022-11-17T02:12:26.708Z,1.20
2022-11-17T02:14:54.465Z,1.50
2022-11-17T02:17:23.415Z,1.30
2022-11-17T02:20:22.530Z,1.60
2022-11-17T02:22:58.077Z,1.90
2022-11-17T02:25:42.650Z,1.43
2022-11-17T02:28:17.625Z,1.60
2022-11-17T02:31:18.068Z,1.87
2022-11-17T02:34:02.904Z,1.27
2022-11-17T02:36:58.650Z,1.40
2022-11-17T02:39:47.252Z,1.30
2022-11-17T02:42:45.530Z,1.70
2022-11-17T02:45:20.782Z,1.20
2022-11-17T02:47:53.498Z,1.20
2022-11-17T02:50:27.894Z,1.50
2022-11-17T02:52:54.921Z,1.10
2022-11-17T02:55:21.488Z,1.40
2022-11-17T02:57:49.540Z,1.27
2022-11-17T03:00:18.764Z,1.60
2022-11-17T03:02:59.506Z,1.27
2022-11-17T03:05:59.095Z,1.60
2022-11-17T03:08:35.771Z,1.33
2022-11-17T03:11:05.278Z,1.03
2022-11-17T03:13:46.276Z,1.43
2022-11-17T03:16:12.682Z,1.43
2022-11-17T03:19:22.052Z,1.30
2022-11-17T03:21:55.446Z,1.50
2022-11-17T03:24:29.678Z,1.00
2022-11-17T03:27:06.635Z,1.27
2022-11-17T03:29:35.789Z,1.30
2022-11-17T03:32:05.785Z,1.70
2022-11-17T03:34:38.030Z,1.53
2022-11-17T03:37:07.539Z,1.13
2022-11-17T03:39:40.120Z,1.70
2022-11-17T03:42:19.090Z,1.30
2022-11-17T03:44:51.111Z,1.50
2022-11-17T03:47:20.783Z,1.17
2022-11-17T03:49:47.131Z,1.17
2022-11-17T03:52:13.685Z,1.33
2022-11-17T03:54:40.774Z,1.40
2022-11-17T03:57:12.711Z,1.40
2022-11-17T03:59:53.697Z,1.50
2022-11-17T04:02:22.152Z,1.37
2022-11-17T04:05:06.642Z,1.33
2022-11-17T04:07:37.555Z,1.40
2022-11-17T04:10:05.209Z,1.33
2022-11-17T04:12:49.980Z,1.57
2022-11-17T04:15:35.520Z,1.20
2022-11-17T04:18:03.416Z,1.40
2022-11-17T04:20:36.029Z,1.07
2022-11-17T04:23:11.418Z,1.20
2022-11-17T04:25:58.132Z,1.30
2022-11-17T04:28:38.296Z,0.93
2022-11-17T04:31:19.717Z,1.20
2022-11-17T04:33:48.579Z,0.93
2022-11-17T04:36:18.178Z,1.00
2022-11-17T04:38:46.572Z,1.20
2022-11-17T04:41:32.924Z,0.70
2022-11-17T04:44:00.192Z,1.20
2022-11-17T04:46:27.598Z,1.00
2022-11-17T04:48:54.823Z,1.00
2022-11-17T04:51:22.205Z,1.00
2022-11-17T04:53:49.276Z,0.90
2022-11-17T04:56:16.536Z,1.00
2022-11-17T04:58:43.017Z,0.90
2022-11-17T05:01:12.915Z,1.00
2022-11-17T05:03:49.718Z,1.43
2022-11-17T05:06:20.487Z,0.97
2022-11-17T05:08:47.659Z,0.90
2022-11-17T05:11:34.704Z,1.20
2022-11-17T05:14:01.798Z,1.83
2022-11-17T05:16:47.388Z,1.30
2022-11-17T05:19:18.975Z,1.60
2022-11-17T05:21:45.716Z,1.23
2022-11-17T05:24:14.322Z,1.30
2022-11-17T05:26:42.745Z,1.20
2022-11-17T05:29:10.400Z,1.13
2022-11-17T05:31:37.501Z,1.20
2022-11-17T05:34:05.731Z,1.10
2022-11-17T05:36:32.889Z,1.23
2022-11-17T05:38:59.913Z,1.33
2022-11-17T05:41:28.710Z,0.83
2022-11-17T05:43:56.012Z,1.27
2022-11-17T05:46:22.990Z,0.83
2022-11-17T05:48:50.298Z,1.40
2022-11-17T05:51:18.942Z,1.20
2022-11-17T05:53:45.793Z,1.50
2022-11-17T05:56:31.096Z,1.17
2022-11-17T05:59:09.598Z,1.00
2022-11-17T06:01:42.267Z,1.43
2022-11-17T06:04:09.133Z,1.13
2022-11-17T06:06:37.551Z,1.10
2022-11-17T06:09:04.610Z,1.27
2022-11-17T06:11:31.067Z,1.00
2022-11-17T06:13:57.543Z,0.87
2022-11-17T06:16:27.530Z,1.03
2022-11-17T06:19:07.791Z,1.67
2022-11-17T06:22:04.408Z,1.00
2022-11-17T06:24:22.361Z,0.90
2022-11-17T06:26:49.017Z,0.90
2022-11-17T06:29:16.401Z,0.93
2022-11-17T06:31:44.834Z,1.20
2022-11-17T06:34:11.851Z,0.93
2022-11-17T06:36:38.292Z,1.10
2022-11-17T06:39:04.795Z,1.27
2022-11-17T06:41:31.296Z,1.00
2022-11-17T06:43:57.741Z,0.87
2022-11-17T06:46:24.164Z,1.00
2022-11-17T06:48:50.588Z,1.17
2022-11-17T06:51:17.075Z,1.20
2022-11-17T06:53:43.494Z,1.17
2022-11-17T06:56:10.854Z,1.23
2022-11-17T06:58:39.832Z,1.10
2022-11-17T07:01:09.092Z,1.10
2022-11-17T07:03:37.510Z,1.20
2022-11-17T07:06:06.255Z,1.50
2022-11-17T07:08:34.193Z,0.93
2022-11-17T07:11:05.877Z,1.43
2022-11-17T07:13:34.283Z,1.07
2022-11-17T07:16:06.075Z,1.40
2022-11-17T07:18:33.565Z,1.00
2022-11-17T07:21:02.947Z,0.93
2022-11-17T07:23:30.521Z,1.20
2022-11-17T07:25:56.968Z,0.93
2022-11-17T07:28:23.616Z,1.33
2022-11-17T07:30:50.124Z,1.30
2022-11-17T07:33:16.710Z,0.90
2022-11-17T07:35:43.176Z,0.97
2022-11-17T07:38:09.727Z,0.80
2022-11-17T07:40:36.385Z,1.10
2022-11-17T07:43:02.802Z,1.03
2022-11-17T07:45:31.797Z,0.73
2022-11-17T07:48:01.079Z,1.13
2022-11-17T07:50:28.149Z,1.37
2022-11-17T07:52:56.060Z,1.00
2022-11-17T07:55:23.922Z,0.93
2022-11-17T07:58:00.688Z,0.90
2022-11-17T08:00:29.256Z,0.90
2022-11-17T08:02:56.018Z,1.23
2022-11-17T08:05:22.508Z,1.57
2022-11-17T08:07:56.042Z,1.13
2022-11-17T08:10:23.046Z,0.90
2022-11-17T08:12:55.544Z,1.10
2022-11-17T08:15:22.349Z,0.87
2022-11-17T08:17:56.287Z,1.03
2022-11-17T08:20:23.788Z,0.80
2022-11-17T08:22:51.645Z,1.43
2022-11-17T08:25:19.413Z,1.13
2022-11-17T08:27:46.049Z,0.90
2022-11-17T08:30:12.882Z,1.00
2022-11-17T08:32:39.561Z,0.90
2022-11-17T08:35:07.237Z,0.73
2022-11-17T08:37:33.628Z,1.00
2022-11-17T08:40:00.188Z,0.90
2022-11-17T08:42:26.619Z,1.00
2022-11-17T08:44:53.186Z,1.37
2022-11-17T08:47:19.669Z,1.00
2022-11-17T08:49:46.060Z,1.00
2022-11-17T08:52:12.514Z,0.80
2022-11-17T08:54:38.998Z,0.77
2022-11-17T08:57:05.516Z,1.00
2022-11-17T08:59:32.118Z,0.83
2022-11-17T09:01:58.532Z,0.70
2022-11-17T09:04:25.031Z,0.90
2022-11-17T09:06:51.540Z,1.07
2022-11-17T09:09:18.631Z,0.73
2022-11-17T09:11:45.181Z,0.67
2022-11-17T09:14:11.636Z,1.17
2022-11-17T09:16:38.094Z,0.80
2022-11-17T09:19:05.123Z,0.97
2022-11-17T09:21:33.011Z,1.00
2022-11-17T09:23:59.543Z,0.83
2022-11-17T09:26:25.922Z,0.97
2022-11-17T09:28:52.438Z,1.10
2022-11-17T09:31:21.806Z,1.00
2022-11-17T09:33:48.390Z,0.87
2022-11-17T09:36:16.487Z,1.30
2022-11-17T09:38:43.813Z,0.70
2022-11-17T09:41:16.532Z,1.17
2022-11-17T09:44:28.286Z,0.90
2022-11-17T09:47:06.089Z,1.30
2022-11-17T09:50:02.301Z,0.90
2022-11-17T09:52:35.911Z,1.07
2022-11-17T09:55:08.343Z,0.73
2022-11-17T09:57:50.416Z,0.60
2022-11-17T10:00:19.321Z,0.83
2022-11-17T10:02:46.307Z,1.00
2022-11-17T10:05:15.447Z,0.97
2022-11-17T10:07:49.561Z,0.90
2022-11-17T10:10:21.536Z,1.20
2022-11-17T10:12:55.229Z,0.90
2022-11-17T10:15:28.531Z,1.07
2022-11-17T10:17:55.262Z,0.70
2022-11-17T10:20:22.380Z,1.00
2022-11-17T10:22:51.941Z,0.80
2022-11-17T10:25:34.940Z,1.10
2022-11-17T10:28:01.478Z,1.40
2022-11-17T10:30:28.162Z,0.80
2022-11-17T10:32:59.245Z,0.83
2022-11-17T10:35:36.647Z,0.90
2022-11-17T10:38:17.481Z,0.80
2022-11-17T10:40:43.878Z,1.03
2022-11-17T10:43:13.081Z,1.17
2022-11-17T10:45:45.807Z,0.70
2022-11-17T10:48:28.352Z,0.90
2022-11-17T10:51:03.951Z,0.60
2022-11-17T10:53:46.027Z,1.43
2022-11-17T10:56:18.072Z,0.97
2022-11-17T10:58:58.232Z,0.80
2022-11-17T11:01:32.431Z,1.27
2022-11-17T11:03:59.387Z,1.27
2022-11-17T11:06:29.698Z,0.90
2022-11-17T11:09:21.517Z,1.10
2022-11-17T11:11:56.372Z,1.13
2022-11-17T11:14:39.146Z,1.17
2022-11-17T11:17:13.608Z,0.97
2022-11-17T11:19:42.103Z,1.13
2022-11-17T11:22:34.394Z,0.80
2022-11-17T11:25:09.970Z,1.60
2022-11-17T11:28:11.423Z,1.20
2022-11-17T11:30:47.238Z,1.10
2022-11-17T11:33:36.928Z,1.00
2022-11-17T11:36:03.361Z,0.73
2022-11-17T11:38:56.612Z,1.03
2022-11-17T11:41:54.127Z,1.00
2022-11-17T11:44:26.278Z,1.10
2022-11-17T11:47:00.116Z,0.90
2022-11-17T11:49:30.681Z,1.00
2022-11-17T11:51:57.443Z,0.80
2022-11-17T11:54:49.405Z,0.90
2022-11-17T11:57:22.336Z,1.27
2022-11-17T12:00:03.702Z,0.80
2022-11-17T12:02:41.962Z,0.93
2022-11-17T12:05:23.862Z,1.50
2022-11-17T12:08:10.566Z,0.90
2022-11-17T12:10:54.447Z,0.77
2022-11-17T12:13:22.985Z,1.30
2022-11-17T12:15:49.548Z,1.00
2022-11-17T12:18:18.881Z,1.77
2022-11-17T12:20:55.807Z,0.97
2022-11-17T12:23:22.173Z,1.17
2022-11-17T12:25:54.347Z,1.60
2022-11-17T12:28:31.524Z,1.53
2022-11-17T12:31:31.480Z,0.80
2022-11-17T12:34:00.705Z,1.20
2022-11-17T12:36:31.216Z,1.30
2022-11-17T12:39:03.443Z,1.10
2022-11-17T12:41:48.267Z,0.83
2022-11-17T12:44:44.219Z,1.10
2022-11-17T12:47:13.972Z,1.20
2022-11-17T12:50:14.859Z,1.20
2022-11-17T12:52:56.890Z,1.40
2022-11-17T12:55:29.267Z,1.00
2022-11-17T12:58:10.802Z,1.10
2022-11-17T13:00:53.152Z,0.80
2022-11-17T13:03:32.874Z,1.37
2022-11-17T13:06:33.890Z,1.13
2022-11-17T13:09:06.377Z,0.87
2022-11-17T13:11:33.795Z,0.70
2022-11-17T13:14:10.549Z,1.20
2022-11-17T13:16:46.818Z,0.70
2022-11-17T13:19:33.873Z,1.10
2022-11-17T13:22:15.694Z,1.10
2022-11-17T13:24:44.779Z,0.80
2022-11-17T13:27:29.995Z,1.00
2022-11-17T13:30:35.191Z,1.13
2022-11-17T13:33:03.895Z,0.90
2022-11-17T13:35:33.426Z,1.23
2022-11-17T13:38:01.179Z,2.53
2022-11-17T13:40:28.520Z,1.07
2022-11-17T13:42:55.980Z,1.20
2022-11-17T13:45:22.482Z,1.90
2022-11-17T13:47:50.243Z,1.13
2022-11-17T13:50:43.244Z,1.30
2022-11-17T13:53:12.775Z,1.37
2022-11-17T13:55:46.904Z,0.90
2022-11-17T13:58:28.865Z,1.40
2022-11-17T14:00:58.042Z,1.33
2022-11-17T14:03:42.005Z,2.50
2022-11-17T14:06:11.065Z,1.27
2022-11-17T14:08:39.853Z,1.60
2022-11-17T14:11:12.535Z,1.87
2022-11-17T14:13:40.084Z,1.23
2022-11-17T14:16:20.448Z,2.03
2022-11-17T14:19:00.208Z,2.03
2022-11-17T14:21:27.688Z,1.83
2022-11-17T14:24:13.096Z,1.57
2022-11-17T14:26:44.767Z,1.40
2022-11-17T14:29:12.947Z,1.30
2022-11-17T14:31:39.815Z,1.23
2022-11-17T14:34:06.291Z,1.73
2022-11-17T14:36:33.427Z,1.37
2022-11-17T14:39:01.032Z,1.20
2022-11-17T14:41:27.476Z,0.93
2022-11-17T14:43:54.045Z,1.30
2022-11-17T14:46:25.476Z,1.43
2022-11-17T14:48:53.250Z,0.87
2022-11-17T14:51:20.621Z,0.90
2022-11-17T14:53:47.899Z,1.07
2022-11-17T14:56:16.474Z,1.00
2022-11-17T14:58:42.983Z,0.83
2022-11-17T15:01:17.475Z,1.07
2022-11-17T15:03:44.511Z,1.50
2022-11-17T15:06:18.205Z,1.17
2022-11-17T15:08:46.476Z,0.90
2022-11-17T15:11:16.497Z,1.20
2022-11-17T15:13:43.320Z,1.17
2022-11-17T15:16:10.114Z,1.23
2022-11-17T15:18:36.586Z,1.47
2022-11-17T15:21:05.669Z,1.20
2022-11-17T15:23:33.021Z,1.80
2022-11-17T15:26:03.436Z,1.33
2022-11-17T15:28:30.514Z,1.30
2022-11-17T15:30:57.236Z,1.27
2022-11-17T15:33:23.892Z,1.30
2022-11-17T15:36:07.290Z,1.33
2022-11-17T15:38:33.744Z,1.63
2022-11-17T15:41:00.168Z,1.00
2022-11-17T15:43:32.173Z,1.10
2022-11-17T15:46:09.035Z,1.10
2022-11-17T15:48:40.179Z,1.40
2022-11-17T15:51:08.056Z,1.47
2022-11-17T15:53:36.748Z,1.37
2022-11-17T15:56:05.119Z,0.83
2022-11-17T15:58:31.784Z,0.70
2022-11-17T16:01:12.979Z,1.10
2022-11-17T16:03:41.255Z,1.30
2022-11-17T16:06:08.596Z,1.03
2022-11-17T16:08:35.806Z,1.40
2022-11-17T16:11:02.478Z,1.23
2022-11-17T16:13:29.005Z,1.20
2022-11-17T16:15:56.160Z,1.87
2022-11-17T16:18:22.988Z,1.20
2022-11-17T16:20:49.874Z,0.90
2022-11-17T16:23:17.314Z,1.10
2022-11-17T16:25:45.876Z,1.40
2022-11-17T16:28:13.311Z,1.00
2022-11-17T16:30:40.951Z,1.30
2022-11-17T16:33:12.454Z,2.60
2022-11-17T16:35:40.452Z,3.50
2022-11-17T16:38:12.693Z,1.50
2022-11-17T16:40:39.906Z,1.07
2022-11-17T16:43:06.383Z,1.07
2022-11-17T16:45:47.269Z,1.53
2022-11-17T16:48:13.791Z,1.40
2022-11-17T16:50:42.111Z,1.30
2022-11-17T16:53:08.754Z,1.37
2022-11-17T16:55:38.609Z,1.10
2022-11-17T16:58:06.675Z,1.40
2022-11-17T17:00:34.855Z,1.47
2022-11-17T17:03:02.311Z,2.10
2022-11-17T17:05:31.477Z,1.60
2022-11-17T17:07:57.984Z,1.40
2022-11-17T17:10:24.910Z,1.13
2022-11-17T17:12:52.149Z,1.43
2022-11-17T17:15:18.639Z,1.10
2022-11-17T17:17:45.065Z,0.90
2022-11-17T17:20:11.895Z,1.40
2022-11-17T17:22:38.316Z,1.30
2022-11-17T17:25:05.276Z,2.03
2022-11-17T17:27:31.840Z,1.17
2022-11-17T17:29:58.347Z,1.17
2022-11-17T17:32:24.791Z,1.73
2022-11-17T17:34:51.642Z,1.50
2022-11-17T17:37:18.270Z,1.40
2022-11-17T17:39:44.733Z,2.10
2022-11-17T17:42:12.690Z,2.10
2022-11-17T17:44:39.239Z,1.60
2022-11-17T17:47:05.814Z,2.07
2022-11-17T17:49:32.253Z,1.93
2022-11-17T17:51:58.726Z,3.53
2022-11-17T17:54:25.455Z,1.90
2022-11-17T17:56:52.828Z,1.30
2022-11-17T17:59:19.818Z,2.77
2022-11-17T18:01:47.650Z,1.90
2022-11-17T18:04:16.262Z,3.00
2022-11-17T18:06:46.974Z,2.03
2022-11-17T18:09:15.711Z,1.67
2022-11-17T18:11:45.913Z,2.00
2022-11-17T18:14:13.311Z,1.93
2022-11-17T18:16:40.001Z,1.97
2022-11-17T18:19:08.435Z,2.10
2022-11-17T18:21:35.398Z,1.67
2022-11-17T18:24:03.367Z,2.03
2022-11-17T18:26:32.674Z,2.60
2022-11-17T18:29:02.149Z,1.70
2022-11-17T18:31:30.935Z,1.90
2022-11-17T18:34:21.654Z,1.57
2022-11-17T18:36:52.437Z,2.07
2022-11-17T18:39:19.837Z,3.67
2022-11-17T18:41:47.039Z,2.43
2022-11-17T18:44:15.362Z,1.77
2022-11-17T18:46:41.855Z,3.13
2022-11-17T18:49:08.913Z,1.70
2022-11-17T18:51:35.936Z,3.30
2022-11-17T18:54:03.358Z,2.90
2022-11-17T18:56:37.206Z,1.93
2022-11-17T18:59:12.541Z,2.07
2022-11-17T19:01:41.124Z,2.50
2022-11-17T19:04:09.870Z,1.77
2022-11-17T19:06:37.395Z,1.70
2022-11-17T19:09:04.101Z,1.53
2022-11-17T19:11:34.528Z,1.90
2022-11-17T19:14:02.435Z,1.63
2022-11-17T19:16:29.250Z,1.80
2022-11-17T19:18:56.581Z,2.00
2022-11-17T19:21:25.979Z,4.10
2022-11-17T19:23:54.159Z,1.80
2022-11-17T19:26:23.566Z,2.10
2022-11-17T19:28:50.781Z,1.97
2022-11-17T19:31:19.748Z,2.63
2022-11-17T19:33:47.938Z,1.67
2022-11-17T19:36:23.443Z,1.67
2022-11-17T19:38:51.846Z,1.60
2022-11-17T19:41:23.996Z,1.63
2022-11-17T19:43:59.224Z,2.17
2022-11-17T19:46:27.355Z,2.50
2022-11-17T19:48:55.342Z,1.80
2022-11-17T19:51:27.204Z,1.50
2022-11-17T19:53:56.324Z,1.63
2022-11-17T19:56:24.030Z,1.47
2022-11-17T19:58:51.469Z,1.67
2022-11-17T20:01:29.117Z,2.00
2022-11-17T20:03:57.372Z,1.70
2022-11-17T20:06:27.295Z,3.80
2022-11-17T20:08:54.818Z,6.90
2022-11-17T20:11:23.449Z,6.10
2022-11-17T20:13:50.239Z,2.40
2022-11-17T20:16:22.074Z,2.17
2022-11-17T20:18:50.913Z,2.30
2022-11-17T20:21:17.705Z,2.70
2022-11-17T20:23:44.241Z,1.80
2022-11-17T20:26:12.775Z,2.10
2022-11-17T20:28:39.368Z,2.43
2022-11-17T20:31:11.001Z,1.80
2022-11-17T20:33:38.386Z,1.73
2022-11-17T20:36:06.393Z,3.27
2022-11-17T20:38:33.639Z,2.27
2022-11-17T20:41:00.907Z,6.50
2022-11-17T20:43:28.667Z,2.20
2022-11-17T20:45:56.722Z,4.53
2022-11-17T20:48:24.588Z,3.30
2022-11-17T20:51:04.873Z,3.60
2022-11-17T20:53:32.249Z,4.93
2022-11-17T20:55:59.881Z,2.70
2022-11-17T20:58:27.177Z,2.00
2022-11-17T21:00:54.185Z,1.70
2022-11-17T21:03:20.840Z,2.10
2022-11-17T21:05:59.052Z,2.37
2022-11-17T21:08:27.782Z,2.63
2022-11-17T21:11:00.414Z,2.00
2022-11-17T21:13:27.338Z,2.40
2022-11-17T21:16:14.736Z,1.80
2022-11-17T21:18:46.628Z,2.00
2022-11-17T21:21:13.746Z,3.63
2022-11-17T21:23:41.215Z,3.07
2022-11-17T21:26:09.909Z,4.50
2022-11-17T21:28:37.515Z,3.63
2022-11-17T21:31:06.914Z,2.10
2022-11-17T21:33:33.918Z,2.13
2022-11-17T21:36:01.856Z,2.17
2022-11-17T21:38:30.123Z,4.37
2022-11-17T21:41:01.999Z,2.70
2022-11-17T21:43:29.144Z,2.17
2022-11-17T21:46:00.909Z,1.90
2022-11-17T21:48:27.344Z,2.13
2022-11-17T21:50:53.818Z,1.37
2022-11-17T21:53:20.393Z,2.00
2022-11-17T21:55:46.894Z,1.57
2022-11-17T21:58:13.460Z,2.23
2022-11-17T22:00:39.930Z,2.10
2022-11-17T22:03:06.452Z,1.60
2022-11-17T22:05:32.922Z,1.90
2022-11-17T22:07:59.908Z,2.00
2022-11-17T22:10:26.595Z,1.93
2022-11-17T22:12:53.107Z,1.83
2022-11-17T22:15:19.572Z,1.77
2022-11-17T22:17:46.055Z,2.43
2022-11-17T22:20:12.508Z,2.10
2022-11-17T22:22:39.128Z,2.20
2022-11-17T22:25:29.839Z,2.00
2022-11-17T22:27:52.173Z,1.80
2022-11-17T22:30:18.649Z,1.80
2022-11-17T22:32:45.507Z,1.80
2022-11-17T22:35:12.092Z,1.90
2022-11-17T22:37:38.582Z,1.80
2022-11-17T22:40:05.486Z,2.63
2022-11-17T22:42:31.899Z,2.27
2022-11-17T22:44:58.332Z,2.20
2022-11-17T22:47:24.736Z,1.63
2022-11-17T22:49:51.183Z,1.47
2022-11-17T22:52:17.640Z,1.70
2022-11-17T22:54:44.401Z,2.00
2022-11-17T22:57:10.939Z,1.97
2022-11-17T22:59:37.615Z,1.47
2022-11-17T23:02:04.117Z,2.20
2022-11-17T23:04:31.010Z,2.00
2022-11-17T23:06:57.608Z,1.57
2022-11-17T23:09:24.104Z,1.53
2022-11-17T23:11:50.536Z,1.87
2022-11-17T23:14:16.943Z,1.80
2022-11-17T23:16:43.526Z,1.70
2022-11-17T23:19:12.963Z,1.73
2022-11-17T23:21:39.817Z,1.80
2022-11-17T23:24:09.372Z,1.90
2022-11-17T23:26:36.457Z,1.67
2022-11-17T23:29:03.004Z,1.63
2022-11-17T23:31:29.504Z,1.30
2022-11-17T23:33:56.416Z,1.80
2022-11-17T23:36:23.655Z,1.80
2022-11-17T23:38:51.247Z,1.67
2022-11-17T23:41:20.535Z,1.73
2022-11-17T23:43:50.885Z,1.83
2022-11-17T23:46:18.966Z,2.00
2022-11-17T23:48:45.549Z,1.77
2022-11-17T23:51:15.454Z,1.63
2022-11-17T23:53:42.369Z,1.80
2022-11-17T23:56:10.058Z,1.83
2022-11-17T23:58:37.413Z,1.70
